Time;durP1;ratioP1;P1;durP2;ratioP2;P2;SDS_P1;SDS_P2;PMS_P1;PMS_P2;Temp;Humidity;BMP_temperature;BMP_pressure;BME280_temperature;BME280_humidity;BME280_pressure;Samples;Min_cycle;Max_cycle;Signal;HPM_P1;HPM_P2
2022/04/16 00:02:03;;;;;;;2.57;1.37;;;11.10;99.90;;;;;;5025697;28;20274;-70
2022/04/16 00:04:31;;;;;;;5.00;1.57;;;11.10;99.90;;;;;;5057803;28;20220;-71
2022/04/16 00:06:57;;;;;;;2.07;1.43;;;11.10;99.90;;;;;;5041560;28;20222;-70
2022/04/16 00:09:24;;;;;;;3.87;1.50;;;11.00;99.90;;;;;;5033074;28;20701;-70
2022/04/16 00:11:50;;;;;;;3.90;1.60;;;11.10;99.90;;;;;;5050526;28;20218;-70
2022/04/16 00:14:19;;;;;;;2.00;1.50;;;11.10;99.90;;;;;;5048272;28;20559;-70
2022/04/16 00:16:46;;;;;;;2.73;1.50;;;11.10;99.90;;;;;;5034255;28;20569;-71
2022/04/16 00:19:14;;;;;;;1.20;1.10;;;11.00;99.90;;;;;;5049857;28;20218;-70
2022/04/16 00:21:40;;;;;;;1.47;1.20;;;11.00;99.90;;;;;;5050616;28;20306;-70
2022/04/16 00:24:07;;;;;;;2.10;1.40;;;10.90;99.90;;;;;;5047695;28;20294;-71
2022/04/16 00:26:40;;;;;;;1.47;1.13;;;10.90;99.90;;;;;;5030450;28;20279;-70
2022/04/16 00:29:08;;;;;;;4.37;1.30;;;10.90;99.90;;;;;;5015560;28;20884;-71
2022/04/16 00:31:36;;;;;;;4.67;1.10;;;10.90;99.90;;;;;;5046013;28;20315;-71
2022/04/16 00:34:02;;;;;;;2.57;1.33;;;10.90;99.90;;;;;;5046355;28;20274;-70
2022/04/16 00:36:29;;;;;;;2.20;1.37;;;11.00;99.90;;;;;;5036514;28;20245;-70
2022/04/16 00:38:55;;;;;;;1.93;1.30;;;11.00;99.90;;;;;;5048491;28;20648;-71
2022/04/16 00:41:22;;;;;;;2.47;1.60;;;11.00;99.90;;;;;;5043871;28;20188;-71
2022/04/16 00:43:52;;;;;;;3.60;1.47;;;11.10;99.90;;;;;;5030458;28;20196;-71
2022/04/16 00:46:19;;;;;;;3.17;1.90;;;11.10;99.90;;;;;;5038214;28;20889;-71
2022/04/16 00:48:45;;;;;;;2.00;1.30;;;11.10;99.90;;;;;;5052398;28;20311;-71
2022/04/16 00:51:13;;;;;;;2.00;1.20;;;11.10;99.90;;;;;;5044626;28;20191;-70
2022/04/16 00:53:42;;;;;;;4.23;1.40;;;11.20;99.90;;;;;;5046675;28;20195;-71
2022/04/16 00:56:12;;;;;;;2.33;1.43;;;11.20;99.90;;;;;;5056429;28;20552;-71
2022/04/16 00:58:42;;;;;;;2.13;1.13;;;11.20;99.90;;;;;;5028220;28;20188;-70
2022/04/16 01:01:09;;;;;;;1.87;1.30;;;11.20;99.90;;;;;;5027214;28;20200;-71
2022/04/16 01:03:36;;;;;;;2.30;1.43;;;11.20;99.90;;;;;;5020992;28;20184;-71
2022/04/16 01:06:03;;;;;;;1.37;1.10;;;11.10;99.90;;;;;;5035643;28;20188;-71
2022/04/16 01:08:30;;;;;;;2.30;1.30;;;11.10;99.90;;;;;;5041314;28;20180;-70
2022/04/16 01:10:57;;;;;;;2.27;1.30;;;11.10;99.90;;;;;;5034399;28;20334;-71
2022/04/16 01:13:23;;;;;;;5.13;1.40;;;11.10;99.90;;;;;;5047410;28;20230;-70
2022/04/16 01:15:50;;;;;;;2.20;1.20;;;11.10;99.90;;;;;;5036422;28;20222;-70
2022/04/16 01:18:17;;;;;;;4.80;1.47;;;11.10;99.90;;;;;;5029313;28;20188;-70
2022/04/16 01:20:44;;;;;;;2.70;0.93;;;11.10;99.90;;;;;;5040913;28;20271;-70
2022/04/16 01:23:10;;;;;;;1.50;1.20;;;11.10;99.90;;;;;;5044124;28;20235;-70
2022/04/16 01:25:37;;;;;;;1.77;1.30;;;11.10;99.90;;;;;;5039137;28;20192;-71
2022/04/16 01:28:05;;;;;;;2.87;1.20;;;11.00;99.90;;;;;;5036077;28;20890;-70
2022/04/16 01:30:32;;;;;;;1.50;1.10;;;11.10;99.90;;;;;;5030793;28;20196;-68
2022/04/16 01:32:58;;;;;;;2.00;1.17;;;11.10;99.90;;;;;;5037487;28;20580;-68
2022/04/16 01:35:24;;;;;;;5.20;1.40;;;11.00;99.90;;;;;;5023127;28;20191;-68
2022/04/16 01:37:51;;;;;;;2.23;1.47;;;11.00;99.90;;;;;;5042786;28;20207;-69
2022/04/16 01:40:18;;;;;;;4.30;1.30;;;10.90;99.90;;;;;;5029427;28;20259;-68
2022/04/16 01:42:45;;;;;;;2.00;1.23;;;10.90;99.90;;;;;;5021925;28;20199;-68
2022/04/16 01:45:17;;;;;;;2.63;1.30;;;10.90;99.90;;;;;;5048972;28;20191;-68
2022/04/16 01:47:44;;;;;;;2.60;1.50;;;10.90;99.90;;;;;;5041073;28;20196;-67
2022/04/16 01:50:12;;;;;;;1.97;1.20;;;10.90;99.90;;;;;;5035188;28;20200;-67
2022/04/16 01:52:41;;;;;;;4.03;1.30;;;10.90;99.90;;;;;;5027635;28;20239;-68
2022/04/16 01:55:09;;;;;;;2.50;1.43;;;10.90;99.90;;;;;;5041080;28;20196;-68
2022/04/16 01:57:35;;;;;;;2.43;1.30;;;10.90;99.90;;;;;;5068093;28;20630;-68
2022/04/16 02:00:04;;;;;;;2.20;1.40;;;10.80;99.90;;;;;;5047966;28;20215;-69
2022/04/16 02:02:30;;;;;;;5.50;1.40;;;10.80;99.90;;;;;;5049193;28;20232;-70
2022/04/16 02:04:56;;;;;;;3.83;1.30;;;10.80;99.90;;;;;;5035193;28;20207;-70
2022/04/16 02:07:22;;;;;;;2.57;1.20;;;10.70;99.90;;;;;;5045822;28;20187;-71
2022/04/16 02:09:49;;;;;;;2.23;1.40;;;10.70;99.90;;;;;;5039218;28;20641;-70
2022/04/16 02:12:15;;;;;;;1.50;1.10;;;10.70;99.90;;;;;;5030479;28;20247;-71
2022/04/16 02:14:41;;;;;;;2.10;1.40;;;10.70;99.90;;;;;;5042161;28;20664;-70
2022/04/16 02:17:08;;;;;;;3.20;1.30;;;10.70;99.90;;;;;;5049961;28;20978;-71
2022/04/16 02:19:36;;;;;;;2.90;1.40;;;10.70;99.90;;;;;;5044193;28;20180;-71
2022/04/16 02:22:03;;;;;;;1.53;1.13;;;10.70;99.90;;;;;;5035100;28;20243;-71
2022/04/16 02:24:29;;;;;;;2.53;1.30;;;10.70;99.90;;;;;;5049409;28;20207;-70
2022/04/16 02:26:55;;;;;;;2.90;1.50;;;10.70;99.90;;;;;;5041746;28;20249;-70
2022/04/16 02:29:22;;;;;;;4.40;1.57;;;10.70;99.90;;;;;;5031212;28;20286;-71
2022/04/16 02:31:49;;;;;;;3.40;1.50;;;10.70;99.90;;;;;;5048784;28;20219;-70
2022/04/16 02:34:18;;;;;;;2.40;1.40;;;10.60;99.90;;;;;;5045651;28;20196;-71
2022/04/16 02:36:44;;;;;;;3.47;1.20;;;10.60;99.90;;;;;;5041721;28;20206;-70
2022/04/16 02:39:10;;;;;;;2.87;1.33;;;10.60;99.90;;;;;;5043986;28;20184;-70
2022/04/16 02:41:36;;;;;;;3.47;1.40;;;10.60;99.90;;;;;;5048820;28;20199;-70
2022/04/16 02:44:03;;;;;;;1.90;1.40;;;10.60;99.90;;;;;;5047533;28;20214;-71
2022/04/16 02:49:19;;;;;;;2.47;1.33;;;10.60;99.90;;;;;;5051176;28;20240;-71
2022/04/16 02:51:45;;;;;;;2.10;1.30;;;10.70;99.90;;;;;;5039569;28;20668;-71
2022/04/16 02:54:11;;;;;;;3.23;1.53;;;10.70;99.90;;;;;;5052507;28;20192;-70
2022/04/16 02:56:39;;;;;;;1.93;1.20;;;10.80;99.90;;;;;;5014804;28;20215;-71
2022/04/16 02:59:05;;;;;;;1.43;1.20;;;10.80;99.90;;;;;;5031076;28;20219;-70
2022/04/16 03:01:31;;;;;;;2.73;1.27;;;10.90;99.90;;;;;;5042961;28;20191;-70
2022/04/16 03:03:57;;;;;;;2.60;1.47;;;10.80;99.90;;;;;;5052292;28;20708;-70
2022/04/16 03:06:24;;;;;;;1.93;1.33;;;10.80;99.90;;;;;;5033447;28;20964;-70
2022/04/16 03:08:50;;;;;;;1.67;1.40;;;10.80;99.90;;;;;;5030262;28;20199;-71
2022/04/16 03:11:16;;;;;;;3.53;1.50;;;10.70;99.90;;;;;;5039933;28;20188;-71
2022/04/16 03:13:43;;;;;;;1.77;1.13;;;10.60;99.90;;;;;;5051650;28;20219;-71
2022/04/16 03:18:54;;;;;;;1.87;1.40;;;10.50;99.90;;;;;;5030383;28;20191;-70
2022/04/16 03:21:21;;;;;;;1.73;1.20;;;10.50;99.90;;;;;;5036360;28;20183;-70
2022/04/16 03:23:47;;;;;;;1.80;1.17;;;10.50;99.90;;;;;;5044227;28;20275;-70
2022/04/16 03:26:13;;;;;;;2.97;1.40;;;10.50;99.90;;;;;;5047569;28;20218;-70
2022/04/16 03:28:41;;;;;;;2.27;1.30;;;10.50;99.90;;;;;;5030111;28;20195;-70
2022/04/16 03:31:07;;;;;;;4.20;1.37;;;10.50;99.90;;;;;;5032772;28;20197;-70
2022/04/16 03:33:34;;;;;;;2.03;1.30;;;10.50;99.90;;;;;;5031297;28;20734;-71
2022/04/16 03:36:00;;;;;;;2.43;1.47;;;10.50;99.90;;;;;;5035373;28;20595;-70
2022/04/16 03:38:26;;;;;;;1.70;1.20;;;10.40;99.90;;;;;;5051851;28;20191;-71
2022/04/16 03:40:53;;;;;;;1.87;1.30;;;10.50;99.90;;;;;;5050077;28;20651;-70
2022/04/16 03:43:20;;;;;;;2.00;1.20;;;10.50;99.90;;;;;;5035036;28;20208;-70
2022/04/16 03:45:46;;;;;;;2.53;1.20;;;10.50;99.90;;;;;;5033836;28;20188;-70
2022/04/16 03:48:13;;;;;;;2.70;1.20;;;10.50;99.90;;;;;;5042956;28;20207;-70
2022/04/16 03:50:40;;;;;;;10.20;1.30;;;10.60;99.90;;;;;;5049680;28;20194;-71
2022/04/16 03:53:06;;;;;;;5.57;1.30;;;10.60;99.90;;;;;;5047944;28;20215;-70
2022/04/16 04:01:07;;;;;;;3.03;1.17;;;10.50;99.90;;;;;;5047362;28;20190;-71
2022/04/16 04:03:33;;;;;;;4.50;1.40;;;10.50;99.90;;;;;;5037944;28;20805;-70
2022/04/16 04:06:01;;;;;;;2.03;1.17;;;10.50;99.90;;;;;;5038459;28;20198;-70
2022/04/16 04:08:28;;;;;;;2.43;1.40;;;10.60;99.90;;;;;;5036821;28;21164;-70
2022/04/16 04:10:55;;;;;;;2.30;1.10;;;10.60;99.90;;;;;;5045945;28;20285;-70
2022/04/16 04:13:23;;;;;;;3.80;1.37;;;10.70;99.90;;;;;;5020299;28;20230;-71
2022/04/16 04:15:50;;;;;;;1.67;1.33;;;10.70;99.90;;;;;;5032421;28;20219;-70
2022/04/16 04:18:16;;;;;;;3.60;1.37;;;10.70;99.90;;;;;;5048011;28;20237;-70
2022/04/16 04:20:42;;;;;;;2.43;1.33;;;10.70;99.90;;;;;;5048200;28;20195;-71
2022/04/16 04:23:09;;;;;;;2.53;1.30;;;10.80;99.90;;;;;;5065884;28;20191;-70
2022/04/16 04:25:35;;;;;;;1.53;1.30;;;11.00;99.90;;;;;;5057719;28;20233;-70
2022/04/16 04:28:01;;;;;;;2.73;1.27;;;11.10;99.90;;;;;;5045836;28;20310;-70
2022/04/16 04:30:29;;;;;;;7.50;2.50;;;11.20;99.90;;;;;;5023284;28;20207;-70
2022/04/16 04:32:57;;;;;;;3.13;1.30;;;11.20;99.90;;;;;;5035812;28;20311;-70
2022/04/16 04:35:23;;;;;;;1.97;1.30;;;11.30;99.90;;;;;;5028400;28;20191;-71
2022/04/16 04:37:49;;;;;;;4.53;1.60;;;11.30;99.90;;;;;;5041168;28;20188;-70
2022/04/16 04:40:16;;;;;;;2.20;1.10;;;11.30;99.90;;;;;;5037198;28;20192;-70
2022/04/16 04:42:42;;;;;;;3.57;1.30;;;11.40;99.90;;;;;;5046365;28;20196;-71
2022/04/16 04:45:14;;;;;;;1.67;1.20;;;11.40;99.90;;;;;;5035056;28;20200;-70
2022/04/16 04:47:41;;;;;;;2.47;1.40;;;11.50;99.90;;;;;;5033574;28;20200;-71
2022/04/16 04:50:09;;;;;;;1.87;1.23;;;11.50;99.90;;;;;;5028410;28;20653;-71
2022/04/16 04:52:42;;;;;;;2.90;1.20;;;11.50;99.90;;;;;;5013846;28;20220;-71
2022/04/16 04:55:11;;;;;;;2.13;1.30;;;11.50;99.90;;;;;;5035666;28;20199;-71
2022/04/16 04:57:39;;;;;;;2.17;1.30;;;11.60;99.90;;;;;;5034018;28;20192;-70
2022/04/16 05:00:07;;;;;;;1.70;1.40;;;11.60;99.90;;;;;;5036852;28;20197;-70
2022/04/16 05:02:42;;;;;;;1.77;1.30;;;11.70;99.90;;;;;;5031602;28;20199;-70
2022/04/16 05:05:09;;;;;;;3.20;1.40;;;11.80;99.90;;;;;;5041710;28;20561;-70
2022/04/16 05:07:35;;;;;;;1.40;1.30;;;11.80;99.90;;;;;;5044127;28;20691;-70
2022/04/16 05:10:02;;;;;;;2.37;1.50;;;11.90;99.90;;;;;;5038418;28;20568;-71
2022/04/16 05:12:29;;;;;;;2.23;1.30;;;11.90;99.90;;;;;;5053413;28;20323;-70
2022/04/16 05:14:55;;;;;;;3.63;1.40;;;11.90;99.90;;;;;;5033363;28;20234;-71
2022/04/16 05:17:22;;;;;;;1.67;1.03;;;12.00;99.90;;;;;;5032504;28;20195;-70
2022/04/16 05:19:48;;;;;;;1.47;1.17;;;12.00;99.90;;;;;;5038977;28;20199;-70
2022/04/16 05:22:14;;;;;;;2.13;1.20;;;12.00;99.90;;;;;;5039799;28;20195;-71
2022/04/16 05:24:40;;;;;;;3.57;1.57;;;12.10;99.90;;;;;;5039388;28;20192;-70
2022/04/16 05:27:09;;;;;;;3.30;1.43;;;12.10;99.90;;;;;;5035523;28;20195;-71
2022/04/16 05:32:21;;;;;;;1.63;1.30;;;12.20;99.90;;;;;;5044219;28;20656;-70
2022/04/16 05:34:48;;;;;;;2.27;1.47;;;12.20;99.90;;;;;;5029055;28;20184;-70
2022/04/16 05:37:15;;;;;;;1.93;1.20;;;12.30;99.90;;;;;;5044834;28;20184;-71
2022/04/16 05:39:41;;;;;;;1.50;1.30;;;12.30;99.90;;;;;;5043396;28;20198;-70
2022/04/16 05:42:08;;;;;;;2.40;1.30;;;12.40;99.90;;;;;;5051115;28;20212;-70
2022/04/16 05:44:35;;;;;;;3.13;1.30;;;12.50;99.90;;;;;;5034757;28;20688;-71
2022/04/16 05:47:01;;;;;;;1.40;1.10;;;12.60;99.90;;;;;;5044320;28;20191;-71
2022/04/16 05:49:27;;;;;;;3.03;1.40;;;12.60;99.90;;;;;;5042132;28;20192;-71
2022/04/16 05:51:53;;;;;;;1.40;1.20;;;12.70;99.90;;;;;;5030384;28;20211;-71
2022/04/16 05:54:20;;;;;;;1.93;1.20;;;12.80;99.90;;;;;;5031413;28;20275;-71
2022/04/16 05:56:46;;;;;;;2.43;0.80;;;12.90;99.90;;;;;;5045779;28;20187;-71
2022/04/16 05:59:13;;;;;;;1.83;1.20;;;12.90;99.90;;;;;;5032690;28;20208;-70
2022/04/16 06:01:40;;;;;;;2.73;1.50;;;13.00;99.90;;;;;;5029990;28;20246;-71
2022/04/16 06:04:07;;;;;;;2.50;1.27;;;13.10;99.90;;;;;;5029021;28;20196;-71
2022/04/16 06:06:36;;;;;;;1.67;1.27;;;13.20;99.90;;;;;;5028961;28;20188;-71
2022/04/16 06:09:02;;;;;;;2.10;1.47;;;13.20;99.90;;;;;;5043415;28;20703;-71
2022/04/16 06:11:30;;;;;;;1.70;1.17;;;13.30;99.90;;;;;;5036725;28;20199;-71
2022/04/16 06:13:56;;;;;;;2.57;1.13;;;13.40;99.90;;;;;;5033945;28;20188;-71
2022/04/16 06:16:22;;;;;;;2.07;1.23;;;13.60;99.90;;;;;;5045795;28;20185;-71
2022/04/16 06:18:49;;;;;;;2.17;1.40;;;13.70;99.90;;;;;;5029215;28;20230;-71
2022/04/16 06:21:15;;;;;;;2.90;1.27;;;13.80;99.90;;;;;;5028255;28;20196;-71
2022/04/16 06:23:41;;;;;;;5.33;1.27;;;13.80;99.90;;;;;;5046164;28;20635;-71
2022/04/16 06:26:08;;;;;;;2.13;1.40;;;14.00;99.90;;;;;;5032581;28;20195;-71
2022/04/16 06:28:34;;;;;;;1.77;1.30;;;14.10;99.90;;;;;;5039490;28;20190;-71
2022/04/16 06:31:00;;;;;;;3.30;1.57;;;14.20;99.90;;;;;;5064204;28;20188;-71
2022/04/16 06:33:29;;;;;;;4.73;1.40;;;14.30;99.90;;;;;;5063250;28;20830;-71
2022/04/16 06:35:55;;;;;;;1.77;1.17;;;14.40;99.90;;;;;;5041016;28;20267;-71
2022/04/16 06:38:21;;;;;;;4.20;1.10;;;14.50;99.90;;;;;;5047210;28;20191;-71
2022/04/16 06:40:47;;;;;;;3.00;1.20;;;14.60;99.90;;;;;;5064048;28;20183;-71
2022/04/16 06:43:13;;;;;;;3.20;1.20;;;14.70;99.90;;;;;;5035393;28;20203;-71
2022/04/16 06:45:40;;;;;;;2.23;1.33;;;14.80;99.90;;;;;;5036839;28;20204;-71
2022/04/16 06:48:07;;;;;;;3.80;1.30;;;14.80;99.90;;;;;;5040810;28;20215;-71
2022/04/16 06:50:36;;;;;;;1.80;1.40;;;14.90;99.90;;;;;;5027910;28;20192;-71
2022/04/16 06:53:05;;;;;;;4.80;1.57;;;14.90;99.90;;;;;;5030466;28;20215;-71
2022/04/16 06:55:31;;;;;;;2.23;1.47;;;15.10;99.90;;;;;;5030417;28;20192;-71
2022/04/16 06:57:57;;;;;;;3.23;1.23;;;15.10;99.90;;;;;;5031165;28;20676;-70
2022/04/16 07:00:24;;;;;;;5.87;1.40;;;15.20;99.90;;;;;;5033477;28;20196;-72
2022/04/16 07:02:50;;;;;;;2.03;1.20;;;15.30;99.90;;;;;;5033859;28;20192;-70
2022/04/16 07:05:16;;;;;;;4.97;1.40;;;15.30;99.90;;;;;;5040163;28;20295;-71
2022/04/16 07:07:43;;;;;;;3.93;1.40;;;15.40;99.90;;;;;;5016201;28;20282;-71
2022/04/16 07:10:12;;;;;;;4.77;1.40;;;15.50;99.90;;;;;;5043224;28;20187;-71
2022/04/16 07:12:40;;;;;;;1.47;1.17;;;15.60;99.90;;;;;;5041324;28;20703;-71
2022/04/16 07:15:07;;;;;;;2.73;1.50;;;15.70;99.90;;;;;;5037541;28;20607;-71
2022/04/16 07:17:33;;;;;;;2.43;1.23;;;15.70;99.90;;;;;;5039591;28;20211;-73
2022/04/16 07:20:00;;;;;;;2.47;1.27;;;15.80;99.90;;;;;;5043959;28;20172;-71
2022/04/16 07:22:26;;;;;;;3.20;1.40;;;15.90;99.90;;;;;;5042659;28;20722;-71
2022/04/16 07:24:52;;;;;;;2.00;1.30;;;16.00;99.90;;;;;;5047291;28;20223;-71
2022/04/16 07:27:19;;;;;;;4.27;1.30;;;16.10;99.90;;;;;;5031993;28;20195;-71
2022/04/16 07:29:46;;;;;;;2.40;1.30;;;16.20;99.90;;;;;;5039082;28;20196;-71
2022/04/16 07:32:12;;;;;;;2.67;1.30;;;16.30;99.90;;;;;;5042780;28;20235;-71
2022/04/16 07:34:39;;;;;;;2.13;1.40;;;16.40;99.90;;;;;;5043486;28;20699;-71
2022/04/16 07:37:05;;;;;;;3.07;1.10;;;16.50;99.90;;;;;;5033722;28;20593;-68
2022/04/16 07:39:32;;;;;;;2.40;1.27;;;16.60;99.90;;;;;;5032869;28;20258;-69
2022/04/16 07:41:58;;;;;;;3.97;1.50;;;16.70;99.90;;;;;;5036803;28;20196;-69
2022/04/16 07:44:24;;;;;;;1.80;1.43;;;16.80;99.90;;;;;;5026467;28;20191;-69
2022/04/16 07:46:51;;;;;;;4.50;1.50;;;17.00;99.90;;;;;;5026251;28;20195;-69
2022/04/16 07:49:17;;;;;;;3.33;1.33;;;17.10;99.90;;;;;;5046445;28;20223;-68
2022/04/16 07:51:45;;;;;;;4.03;1.30;;;17.20;99.90;;;;;;5037402;28;20196;-69
2022/04/16 07:54:11;;;;;;;2.37;1.30;;;17.30;99.90;;;;;;5048637;28;20190;-69
2022/04/16 07:56:38;;;;;;;2.17;1.30;;;17.40;99.90;;;;;;5033004;28;20187;-69
2022/04/16 07:59:04;;;;;;;2.87;1.60;;;17.50;99.90;;;;;;5032957;28;20180;-69
2022/04/16 08:01:30;;;;;;;3.10;1.60;;;17.70;99.90;;;;;;5042681;28;20664;-69
2022/04/16 08:03:57;;;;;;;3.53;1.57;;;17.80;99.90;;;;;;5050998;28;20180;-69
2022/04/16 08:06:23;;;;;;;2.23;1.40;;;17.90;99.90;;;;;;5053948;28;20192;-68
2022/04/16 08:08:50;;;;;;;4.53;1.40;;;18.00;99.90;;;;;;5050291;28;20191;-69
2022/04/16 08:11:17;;;;;;;3.77;1.30;;;18.00;99.90;;;;;;5037023;28;20210;-68
2022/04/16 08:13:43;;;;;;;2.53;1.20;;;18.10;99.90;;;;;;5043289;28;20215;-69
2022/04/16 08:16:09;;;;;;;3.53;1.47;;;18.20;99.90;;;;;;5034339;28;20180;-69
2022/04/16 08:18:36;;;;;;;4.33;1.40;;;18.30;99.90;;;;;;5023246;28;20183;-69
2022/04/16 08:21:03;;;;;;;4.03;1.40;;;18.40;99.90;;;;;;5040533;28;20184;-69
2022/04/16 08:23:29;;;;;;;5.37;1.60;;;18.60;99.90;;;;;;5046962;28;20191;-69
2022/04/16 08:25:56;;;;;;;5.30;1.37;;;18.80;99.90;;;;;;5041887;28;20188;-69
2022/04/16 08:28:23;;;;;;;3.20;1.50;;;19.00;99.90;;;;;;5040149;28;20198;-69
2022/04/16 08:30:51;;;;;;;2.03;1.40;;;19.00;99.90;;;;;;5046313;28;20203;-70
2022/04/16 08:33:18;;;;;;;3.50;1.93;;;19.10;99.90;;;;;;5034537;28;20207;-70
2022/04/16 08:35:46;;;;;;;3.27;1.60;;;19.20;99.90;;;;;;5023847;28;20266;-69
2022/04/16 08:38:13;;;;;;;3.47;1.70;;;19.40;99.90;;;;;;5038475;28;20184;-69
2022/04/16 08:40:41;;;;;;;2.37;1.50;;;19.50;99.90;;;;;;5036421;28;20183;-69
2022/04/16 08:43:08;;;;;;;5.47;1.70;;;19.70;99.90;;;;;;5043799;28;20230;-69
2022/04/16 08:45:38;;;;;;;5.40;2.03;;;19.90;99.90;;;;;;5037568;28;20243;-70
2022/04/16 08:48:06;;;;;;;5.13;1.47;;;20.00;99.90;;;;;;5034181;28;20243;-69
2022/04/16 08:50:33;;;;;;;3.03;1.60;;;20.10;99.90;;;;;;5039893;28;20230;-72
2022/04/16 08:53:02;;;;;;;3.27;1.40;;;20.20;99.50;;;;;;5028370;28;20222;-72
2022/04/16 08:55:29;;;;;;;2.97;1.53;;;20.30;99.90;;;;;;5051554;28;20659;-71
2022/04/16 08:57:56;;;;;;;5.23;1.70;;;20.50;99.50;;;;;;5044515;28;20187;-72
2022/04/16 09:00:22;;;;;;;2.67;1.37;;;20.50;99.90;;;;;;5034747;28;20188;-72
2022/04/16 09:02:58;;;;;;;4.00;1.70;;;20.70;99.00;;;;;;5044747;28;20523;-71
2022/04/16 09:05:28;;;;;;;6.23;1.60;;;20.80;98.90;;;;;;5030852;28;20285;-69
2022/04/16 09:07:57;;;;;;;6.10;1.50;;;21.00;99.10;;;;;;5035621;28;20187;-69
2022/04/16 09:10:29;;;;;;;1.77;1.40;;;21.10;97.90;;;;;;5032508;28;20675;-69
2022/04/16 09:12:59;;;;;;;2.23;1.30;;;21.20;98.30;;;;;;5029859;28;20204;-69
2022/04/16 09:15:28;;;;;;;3.23;1.47;;;21.40;98.10;;;;;;5031496;28;20192;-69
2022/04/16 09:18:06;;;;;;;3.13;1.63;;;21.50;98.40;;;;;;5029770;28;20234;-69
2022/04/16 09:20:40;;;;;;;5.00;1.90;;;21.70;98.30;;;;;;5036725;28;20274;-69
2022/04/16 09:23:22;;;;;;;4.90;1.77;;;21.80;97.10;;;;;;5031732;28;20202;-72
2022/04/16 09:25:50;;;;;;;6.10;1.63;;;21.90;96.30;;;;;;5024685;28;20199;-71
2022/04/16 09:28:19;;;;;;;2.60;1.50;;;22.00;96.50;;;;;;5039866;28;20192;-71
2022/04/16 09:30:55;;;;;;;2.90;1.53;;;22.20;97.50;;;;;;5043491;28;20192;-71
2022/04/16 09:33:22;;;;;;;6.63;1.60;;;22.30;96.70;;;;;;5041018;28;20215;-71
2022/04/16 09:35:58;;;;;;;6.27;1.80;;;22.50;97.10;;;;;;5047160;28;20218;-72
2022/04/16 09:38:34;;;;;;;5.00;1.60;;;22.60;96.90;;;;;;5058001;28;20278;-71
2022/04/16 09:41:08;;;;;;;2.30;1.40;;;22.80;97.10;;;;;;5033555;28;20195;-72
2022/04/16 09:43:36;;;;;;;7.83;1.40;;;22.90;96.10;;;;;;5036534;28;20210;-72
2022/04/16 09:46:12;;;;;;;8.20;1.67;;;23.00;95.90;;;;;;5026485;28;20199;-72
2022/04/16 09:48:39;;;;;;;3.35;1.88;;;23.10;95.70;;;;;;5034756;28;20198;-69
2022/04/16 09:51:05;;;;;;;6.40;2.03;;;23.20;95.00;;;;;;5038267;28;20183;-69
2022/04/16 09:53:36;;;;;;;7.95;1.60;;;23.40;94.70;;;;;;5028076;28;21017;-71
2022/04/16 09:56:06;;;;;;;3.27;1.60;;;23.50;94.80;;;;;;5029664;28;20188;-70
2022/04/16 09:58:39;;;;;;;4.78;1.40;;;23.50;94.80;;;;;;5045409;28;20191;-68
2022/04/16 10:01:09;;;;;;;3.03;1.70;;;23.50;95.10;;;;;;5036644;28;20187;-71
2022/04/16 10:03:36;;;;;;;3.08;1.60;;;23.60;94.70;;;;;;5025618;28;20572;-69
2022/04/16 10:06:03;;;;;;;5.03;1.67;;;23.70;96.90;;;;;;5025209;28;20184;-69
2022/04/16 10:08:32;;;;;;;9.77;1.60;;;23.80;95.30;;;;;;5013280;28;20679;-69
2022/04/16 10:11:02;;;;;;;4.47;1.55;;;23.80;94.80;;;;;;5049549;28;20246;-69
2022/04/16 10:13:38;;;;;;;6.47;1.98;;;23.80;94.90;;;;;;5037459;28;20299;-70
2022/04/16 10:17:02;;;;;;;6.03;1.45;;;23.80;94.50;;;;;;5028059;28;20183;-69
2022/04/16 10:19:39;;;;;;;3.00;1.70;;;23.90;95.60;;;;;;5038511;28;20985;-70
2022/04/16 10:22:06;;;;;;;2.63;1.50;;;23.90;95.30;;;;;;5034137;28;20669;-70
2022/04/16 10:24:34;;;;;;;6.90;1.63;;;23.80;94.60;;;;;;5056608;28;20184;-70
2022/04/16 10:27:05;;;;;;;3.25;1.60;;;23.80;95.00;;;;;;5041268;28;20269;-70
2022/04/16 10:29:38;;;;;;;3.38;1.83;;;23.80;93.60;;;;;;5028281;28;20619;-71
2022/04/16 10:32:18;;;;;;;7.38;1.30;;;23.80;92.90;;;;;;5041834;28;20210;-70
2022/04/16 10:34:47;;;;;;;10.75;1.83;;;23.80;93.60;;;;;;5017733;28;20184;-70
2022/04/16 10:37:24;;;;;;;5.75;1.70;;;23.70;92.90;;;;;;5022971;28;20184;-70
2022/04/16 10:39:54;;;;;;;4.80;1.60;;;23.70;93.60;;;;;;5038564;28;20202;-70
2022/04/16 10:42:32;;;;;;;4.68;1.77;;;23.70;92.80;;;;;;5022951;28;20279;-71
2022/04/16 10:45:09;;;;;;;2.85;1.48;;;23.60;92.60;;;;;;5039211;28;20222;-71
2022/04/16 10:47:41;;;;;;;6.75;1.70;;;23.60;92.70;;;;;;5018544;28;20192;-71
2022/04/16 10:50:14;;;;;;;3.33;1.77;;;23.50;93.10;;;;;;5022696;28;20184;-70
2022/04/16 10:52:51;;;;;;;6.38;1.65;;;23.50;92.70;;;;;;5036463;28;20212;-70
2022/04/16 10:55:20;;;;;;;3.42;1.60;;;23.50;93.60;;;;;;5048381;28;20179;-70
2022/04/16 10:58:01;;;;;;;3.88;1.80;;;23.50;92.20;;;;;;5034027;28;20176;-70
2022/04/16 11:00:44;;;;;;;4.63;1.60;;;23.40;91.80;;;;;;5032296;28;20223;-71
2022/04/16 11:03:17;;;;;;;3.78;1.55;;;23.30;93.00;;;;;;5025135;28;20191;-70
2022/04/16 11:05:43;;;;;;;2.80;1.60;;;23.30;92.00;;;;;;5041731;28;20214;-70
2022/04/16 11:08:17;;;;;;;3.33;1.70;;;23.30;92.30;;;;;;5041452;28;20644;-70
2022/04/16 11:10:44;;;;;;;3.70;1.58;;;23.30;92.60;;;;;;5038023;28;20184;-70
2022/04/16 11:13:13;;;;;;;2.75;1.70;;;23.20;91.50;;;;;;5052571;28;20552;-70
2022/04/16 11:15:41;;;;;;;5.60;1.80;;;23.20;92.40;;;;;;5038201;28;20325;-69
2022/04/16 11:18:09;;;;;;;10.27;1.60;;;23.10;92.30;;;;;;5046541;28;20192;-70
2022/04/16 11:20:35;;;;;;;3.47;2.17;;;23.00;93.40;;;;;;5032141;28;20184;-71
2022/04/16 11:23:11;;;;;;;5.25;2.08;;;23.00;92.90;;;;;;5037457;28;20698;-70
2022/04/16 11:34:17;;;;;;;3.30;1.80;;;22.90;92.70;;;;;;5033846;28;20224;-70
2022/04/16 11:36:50;;;;;;;6.63;1.70;;;22.80;92.60;;;;;;5031425;28;20215;-69
2022/04/16 11:39:32;;;;;;;4.05;1.60;;;22.80;92.90;;;;;;5035505;28;20215;-69
2022/04/16 11:42:09;;;;;;;7.20;2.20;;;22.80;91.80;;;;;;5030991;28;20190;-70
2022/04/16 11:44:41;;;;;;;2.88;1.67;;;22.80;94.10;;;;;;5028773;28;20191;-70
2022/04/16 11:47:22;;;;;;;3.47;1.80;;;22.80;94.20;;;;;;5031472;28;20199;-70
2022/04/16 11:49:56;;;;;;;2.90;1.70;;;22.70;93.40;;;;;;5040200;28;20195;-71
2022/04/16 11:52:28;;;;;;;3.53;1.67;;;22.60;94.10;;;;;;5037170;28;20210;-69
2022/04/16 11:55:18;;;;;;;1.92;1.58;;;22.60;93.20;;;;;;5042067;28;20199;-70
2022/04/16 11:57:54;;;;;;;3.70;1.55;;;22.70;93.90;;;;;;5025604;28;20277;-69
2022/04/16 12:00:22;;;;;;;9.52;1.85;;;22.60;94.10;;;;;;5040839;28;20270;-70
2022/04/16 12:02:55;;;;;;;4.03;1.77;;;22.60;93.80;;;;;;5040905;28;20225;-69
2022/04/16 12:05:29;;;;;;;3.40;1.70;;;22.60;92.40;;;;;;5046108;28;20215;-69
2022/04/16 12:07:55;;;;;;;6.35;1.80;;;22.40;92.30;;;;;;5022494;28;20268;-72
2022/04/16 12:10:24;;;;;;;7.10;1.70;;;22.40;92.80;;;;;;5039980;28;20645;-72
2022/04/16 12:12:54;;;;;;;7.23;1.83;;;22.40;93.10;;;;;;5042520;28;20341;-72
2022/04/16 12:15:29;;;;;;;2.80;1.70;;;22.40;94.00;;;;;;5041105;28;20266;-72
2022/04/16 12:18:08;;;;;;;3.40;1.70;;;22.40;92.50;;;;;;5028526;28;20195;-72
2022/04/16 12:20:43;;;;;;;4.05;1.83;;;22.40;93.40;;;;;;5033877;28;20202;-73
2022/04/16 12:23:14;;;;;;;4.47;1.58;;;22.40;93.80;;;;;;5016119;28;20187;-73
2022/04/16 12:25:43;;;;;;;5.97;1.50;;;22.40;92.90;;;;;;5025594;28;20188;-72
2022/04/16 12:28:12;;;;;;;5.13;1.70;;;22.40;93.90;;;;;;5041185;28;20185;-72
2022/04/16 12:30:39;;;;;;;2.80;1.30;;;22.30;93.00;;;;;;5031538;28;20192;-72
2022/04/16 12:33:11;;;;;;;7.40;2.30;;;22.30;93.70;;;;;;5019822;28;20211;-72
2022/04/16 12:35:41;;;;;;;5.03;1.75;;;22.20;93.50;;;;;;5050482;28;20267;-73
2022/04/16 12:38:10;;;;;;;8.65;1.80;;;22.20;93.70;;;;;;5021816;28;20588;-72
2022/04/16 12:40:36;;;;;;;5.93;1.85;;;22.20;93.00;;;;;;5052233;28;20188;-72
2022/04/16 12:43:03;;;;;;;2.70;1.73;;;22.20;93.60;;;;;;5050173;28;20203;-72
2022/04/16 12:45:31;;;;;;;4.90;1.53;;;22.20;93.40;;;;;;5048415;28;20192;-72
2022/04/16 12:47:57;;;;;;;6.20;1.97;;;22.30;93.80;;;;;;5050687;28;20175;-72
2022/04/16 12:50:26;;;;;;;3.55;1.63;;;22.20;93.90;;;;;;5043097;28;20238;-72
2022/04/16 12:52:54;;;;;;;4.50;1.70;;;22.20;94.00;;;;;;5029709;28;20215;-72
2022/04/16 12:55:21;;;;;;;4.43;1.73;;;22.20;94.30;;;;;;5036563;28;20218;-72
2022/04/16 12:57:47;;;;;;;2.77;1.67;;;22.20;93.80;;;;;;5061805;28;20265;-72
2022/04/16 13:00:16;;;;;;;6.37;1.80;;;22.00;94.20;;;;;;5042598;28;20198;-73
2022/04/16 13:02:45;;;;;;;4.20;1.80;;;22.00;94.40;;;;;;5033326;28;20222;-72
2022/04/16 13:05:17;;;;;;;7.17;1.63;;;22.00;94.60;;;;;;5030629;28;20211;-73
2022/04/16 13:07:46;;;;;;;3.47;1.50;;;22.00;94.00;;;;;;5031205;28;20192;-73
2022/04/16 13:10:15;;;;;;;4.07;1.60;;;21.90;93.40;;;;;;5034625;28;20187;-72
2022/04/16 13:12:42;;;;;;;6.73;1.77;;;21.90;93.30;;;;;;5044604;28;20302;-72
2022/04/16 13:15:09;;;;;;;4.90;1.63;;;21.90;94.00;;;;;;5028424;28;21007;-72